Latest Weather Observations for Tunnack

IDT60801

Issued at 9:31 am EST Thursday 3 September 2015 (issued every 30 minutes, with the page automatically refreshed every 10 minutes)

About weather observations | Map of weather stations | Latest weather observations for TAS | Other Formats
Station Details ID: 094195 Name: TUNNACK FIRE STATION Lat: -42.45 Lon: 147.46 Height: 461.5 m
Data from the previous 72 hours. | See also: Recent months at Tunnack
Date/Time
EST
Temp
°C
App
Temp
°C
Dew
Point
Rel
Hum
%
Delta-T
°C
Wind Press
QNH
hPa
Press
MSL
hPa
Rain
since 9 am
mm
Dir
 
Spd
km/h
Gust
km/h
Spd
kts
Gust
kts
03/09:30am 4.8 -0.2 4.8 100 0.0 S 20 35 11 19 1013.5 1014.1 0.0
03/09:00am 5.3 0.4 5.3 100 0.0 S 20 32 11 17 1013.1 1013.6 0.0
03/08:30am 4.9 0.0 4.9 100 0.0 S 20 33 11 18 1012.6 1013.1 0.0
03/08:00am 4.8 -0.2 4.8 100 0.0 S 20 37 11 20 1012.0 1012.6 0.0
03/07:30am 5.3 1.8 5.3 100 0.0 S 13 17 7 9 1011.4 1012.0 0.0
03/07:00am 5.3 2.1 5.3 100 0.0 SSW 11 19 6 10 1010.7 1011.2 0.0
03/06:30am 5.4 3.0 5.4 100 0.0 S 7 11 4 6 1010.3 1010.8 0.0
03/06:00am 5.4 2.7 5.4 100 0.0 WSW 9 11 5 6 1009.6 1010.2 0.0
03/05:30am 5.5 2.0 5.5 100 0.0 S 13 19 7 10 1009.5 1010.1 0.0
03/05:00am 5.7 2.3 5.7 100 0.0 S 13 19 7 10 1009.2 1009.7 0.0
03/04:30am 5.9 2.1 5.9 100 0.0 SSW 15 20 8 11 1008.8 1009.3 0.0
03/04:00am 6.5 2.5 6.5 100 0.0 SSW 17 20 9 11 1008.4 1008.9 0.0
03/03:30am 6.9 4.1 6.9 100 0.0 WSW 11 15 6 8 1007.9 1008.4 0.0
03/03:00am 6.2 3.2 6.2 100 0.0 W 11 19 6 10 1007.9 1008.4 0.0
03/02:30am 5.5 2.8 5.5 100 0.0 W 9 13 5 7 1007.9 1008.4 0.0
03/02:00am 5.5 4.5 5.5 100 0.0 CALM 0 0 0 0 1008.2 1008.7 0.0
03/01:30am 5.6 3.8 5.6 100 0.0 SE 4 7 2 4 1008.3 1008.8 0.0
03/01:00am 5.6 4.6 5.6 100 0.0 CALM 0 0 0 0 1008.3 1008.8 0.0
03/12:30am 6.0 3.4 6.0 100 0.0 NNW 9 11 5 6 1008.6 1009.1 0.0
03/12:00am 6.1 4.1 6.1 100 0.0 N 6 9 3 5 1008.7 1009.2 0.0
 
Date/Time
EST
Temp
°C
App
Temp
°C
Dew
Point
Rel
Hum
%
Delta-T
°C
Wind Press
QNH
hPa
Press
MSL
hPa
Rain
since 9 am
mm
Dir
 
Spd
km/h
Gust
km/h
Spd
kts
Gust
kts
02/11:30pm 6.3 4.1 6.3 100 0.0 NNW 7 9 4 5 1008.8 1009.3 0.0
02/11:00pm 6.4 4.4 6.4 100 0.0 N 6 9 3 5 1008.9 1009.4 0.0
02/10:30pm 6.2 4.2 6.2 100 0.0 N 6 7 3 4 1008.9 1009.4 0.0
02/10:00pm 6.6 4.7 6.6 100 0.0 NW 6 7 3 4 1009.0 1009.5 0.0
02/09:30pm 6.2 4.9 6.2 100 0.0 ENE 2 7 1 4 1008.8 1009.3 0.0
02/09:00pm 6.1 5.2 6.1 100 0.0 CALM 0 0 0 0 1008.6 1009.1 0.0
02/08:30pm 7.0 4.6 7.0 100 0.0 NW 9 11 5 6 1008.6 1009.1 0.0
02/08:00pm 6.7 5.9 6.7 100 0.0 CALM 0 0 0 0 1008.6 1009.1 0.0
02/07:30pm 6.8 4.9 6.8 100 0.0 NNE 6 9 3 5 1008.3 1008.8 0.0
02/07:00pm 7.4 5.5 7.4 100 0.0 NNE 7 9 4 5 1008.3 1008.8 0.0
02/06:30pm 8.1 6.0 8.1 100 0.0 N 9 13 5 7 1008.3 1008.8 0.0
02/06:00pm 8.4 6.3 8.3 99 0.0 NNE 9 11 5 6 1008.2 1008.7 0.0
02/05:30pm 9.0 6.7 8.9 99 0.1 N 11 19 6 10 1008.1 1008.6 0.0
02/05:00pm 9.3 7.4 9.2 99 0.1 NNE 9 11 5 6 1008.1 1008.6 0.0
02/04:30pm 9.5 7.3 9.4 99 0.1 NNE 11 17 6 9 1008.2 1008.7 0.0
02/04:00pm 9.5 7.3 9.4 99 0.1 N 11 19 6 10 1008.3 1008.8 0.0
02/03:30pm 9.8 6.2 9.7 99 0.1 N 19 24 10 13 1008.3 1008.8 0.0
02/03:00pm 9.8 6.2 9.7 99 0.1 N 19 26 10 14 1008.3 1008.8 0.0
02/02:30pm 10.1 6.9 9.9 99 0.1 N 17 20 9 11 1008.5 1009.0 0.0
02/02:00pm 10.5 7.0 10.3 99 0.1 N 19 24 10 13 1008.8 1009.3 0.0
02/01:30pm 10.6 7.0 10.4 99 0.1 N 20 28 11 15 1008.9 1009.4 0.0
02/01:00pm 9.6 5.0 9.5 99 0.1 N 24 30 13 16 1009.4 1009.9 0.0
02/12:30pm 9.4 5.5 9.4 100 0.0 N 20 28 11 15 1009.5 1010.1 0.0
02/12:00pm 8.9 4.9 8.9 100 0.0 N 20 28 11 15 1010.4 1010.9 0.0
02/11:30am 7.0 2.1 7.0 100 0.0 N 22 30 12 16 1011.1 1011.6 0.0
02/11:00am 6.2 1.5 6.2 100 0.0 N 20 28 11 15 1011.3 1011.9 0.0
02/10:30am 5.4 -0.6 5.4 100 0.0 N 26 33 14 18 1011.5 1012.1 0.0
02/10:00am 4.7 -0.3 4.7 100 0.0 N 20 28 11 15 1011.7 1012.3 0.0
02/09:30am 4.0 -0.5 4.0 100 0.0 N 17 24 9 13 1011.9 1012.5 0.0
02/09:00am 3.3 -1.8 3.3 100 0.0 N 19 26 10 14 1011.9 1012.5 0.0
02/08:30am 2.7 -2.1 2.7 100 0.0 NNE 17 24 9 13 1012.1 1012.7 0.0
02/08:00am 2.4 -2.1 2.4 100 0.0 N 15 20 8 11 1012.2 1012.8 0.0
02/07:30am 2.1 -1.6 2.1 100 0.0 N 11 19 6 10 1012.1 1012.7 0.0
02/07:00am 1.9 -2.6 1.9 100 0.0 N 15 20 8 11 1011.9 1012.5 0.0
02/06:30am 1.8 -2.4 1.8 100 0.0 N 13 17 7 9 1011.7 1012.3 0.0
02/06:00am 2.3 -1.0 2.3 100 0.0 N 9 13 5 7 1011.7 1012.3 0.0
02/05:30am 2.8 -0.1 2.8 100 0.0 N 7 11 4 6 1011.8 1012.4 0.0
02/05:00am 2.9 -0.7 2.9 100 0.0 N 11 17 6 9 1011.8 1012.4 0.0
02/04:30am 3.1 -0.5 3.1 100 0.0 N 11 15 6 8 1011.8 1012.4 0.0
02/04:00am 3.1 0.3 3.1 100 0.0 NNE 7 9 4 5 1011.8 1012.4 0.0
02/03:30am 3.0 0.4 3.0 100 0.0 N 6 9 3 5 1011.9 1012.5 0.0
02/03:00am 2.7 0.4 2.7 100 0.0 NE 4 9 2 5 1012.1 1012.7 0.0
02/02:30am 3.1 0.5 3.1 100 0.0 N 6 9 3 5 1012.7 1013.2 0.0
02/02:00am 2.5 -0.4 2.5 100 0.0 N 7 9 4 5 1013.0 1013.5 0.0
02/01:30am 2.0 -1.0 2.0 100 0.0 N 7 11 4 6 1013.1 1013.6 0.0
02/01:00am 1.7 -0.8 1.7 100 0.0 N 4 7 2 4 1013.0 1013.5 0.0
02/12:30am 2.5 0.9 2.5 100 0.0 CALM 0 6 0 3 1013.0 1013.5 0.0
02/12:00am 3.1 0.5 3.1 100 0.0 NE 6 7 3 4 1013.1 1013.6 0.0
 
Date/Time
EST
Temp
°C
App
Temp
°C
Dew
Point
Rel
Hum
%
Delta-T
°C
Wind Press
QNH
hPa
Press
MSL
hPa
Rain
since 9 am
mm
Dir
 
Spd
km/h
Gust
km/h
Spd
kts
Gust
kts
01/11:30pm 3.0 1.5 3.0 100 0.0 CALM 0 0 0 0 1013.2 1013.8 0.0
01/11:00pm 3.8 2.4 3.8 100 0.0 CALM 0 0 0 0 1013.4 1014.0 0.0
01/10:30pm 4.1 1.7 4.1 100 0.0 E 6 7 3 4 1013.6 1014.2 0.0
01/10:00pm 3.7 1.0 3.7 100 0.0 NE 7 9 4 5 1013.5 1014.1 0.0
01/09:30pm 3.2 0.4 3.2 100 0.0 ESE 7 9 4 5 1013.4 1014.0 0.0
01/09:00pm 3.0 0.4 3.0 100 0.0 ESE 6 9 3 5 1013.3 1013.9 0.0
01/08:30pm 2.8 0.5 2.8 100 0.0 ESE 4 7 2 4 1013.4 1014.0 0.0
01/08:00pm 2.5 -0.2 2.5 100 0.0 ESE 6 7 3 4 1013.1 1013.6 0.0
01/07:30pm 3.1 -0.1 3.1 100 0.0 ESE 9 9 5 5 1013.0 1013.5 0.0
01/07:00pm 3.8 1.3 3.8 100 0.0 ESE 6 7 3 4 1012.8 1013.3 0.0
01/06:30pm 4.8 1.9 4.7 99 0.0 SE 9 11 5 6 1012.8 1013.3 0.0
01/06:00pm 6.1 3.9 6.0 99 0.0 SE 7 9 4 5 1012.8 1013.3 0.0
01/05:30pm 7.2 4.8 7.1 99 0.0 SSE 9 11 5 6 1012.7 1013.2 0.0
01/05:00pm 8.0 5.4 7.9 99 0.0 SSW 11 13 6 7 1012.5 1013.0 0.0
01/04:30pm 8.8 7.8 8.7 99 0.0 SE 4 9 2 5 1012.6 1013.1 0.0
01/04:00pm 8.8 6.8 8.7 99 0.0 SSE 9 13 5 7 1012.8 1013.3 0.0
01/03:30pm 8.6 6.6 8.5 99 0.0 SE 9 11 5 6 1013.0 1013.5 0.0
01/03:00pm 8.6 6.2 8.5 99 0.0 SSE 11 15 6 8 1013.3 1013.9 0.0
01/02:30pm 8.7 6.7 8.6 99 0.0 SSE 9 15 5 8 1013.3 1013.9 0.0
01/02:00pm 8.1 5.9 8.0 99 0.0 S 9 15 5 8 1013.6 1014.2 0.0
01/01:30pm 7.8 5.2 7.7 99 0.0 SE 11 15 6 8 1013.8 1014.4 0.0
01/01:00pm 7.9 5.7 7.9 100 0.0 S 9 13 5 7 1013.9 1014.5 0.0
01/12:30pm 7.7 5.8 7.7 100 0.0 SW 7 13 4 7 1014.3 1014.9 0.0
01/12:00pm 7.6 5.9 7.6 100 0.0 SW 6 9 3 5 1014.8 1015.3 0.0
01/11:30am 7.4 4.7 7.4 100 0.0 SW 11 17 6 9 1015.0 1015.6 0.0
01/11:00am 6.5 3.6 6.5 100 0.0 SSW 11 17 6 9 1015.1 1015.7 0.0
01/10:30am 6.6 4.1 6.6 100 0.0 S 9 20 5 11 1015.2 1015.8 0.0
01/10:00am 6.1 3.1 6.1 100 0.0 SW 11 17 6 9 1015.4 1016.0 0.0
01/09:30am 5.8 3.1 5.8 100 0.0 SW 9 15 5 8 1015.5 1016.4 0.0
01/09:00am 5.5 3.2 5.5 100 0.0 WSW 7 9 4 5 1015.7 1016.6 1.6
01/08:30am 5.1 2.3 5.1 100 0.0 WNW 9 13 5 7 1015.7 1016.6 1.6
01/08:00am 4.7 2.2 4.7 100 0.0 W 7 11 4 6 1015.6 1016.5 1.6
01/07:30am 4.4 1.8 4.4 100 0.0 W 7 9 4 5 1015.6 1016.5 1.6
01/07:00am 4.2 1.6 4.2 100 0.0 W 7 11 4 6 1015.5 1016.4 1.6
01/06:30am 4.2 1.8 4.2 100 0.0 W 6 9 3 5 1015.5 1016.4 1.6
01/06:00am 4.4 1.5 4.4 100 0.0 WSW 9 13 5 7 1015.5 1016.4 1.6
01/05:30am 4.5 1.6 4.5 100 0.0 WSW 9 13 5 7 1015.3 1016.2 1.6
01/05:00am 4.5 0.8 4.5 100 0.0 SW 13 17 7 9 1015.3 1016.2 1.4
01/04:30am 4.7 1.8 4.7 100 0.0 WSW 9 13 5 7 1015.4 1016.3 1.2
01/04:00am 4.6 1.7 4.6 100 0.0 SW 9 13 5 7 1015.4 1016.3 1.2
01/03:30am 4.6 1.3 4.6 100 0.0 SSW 11 15 6 8 1015.5 1016.4 1.2
01/03:00am 4.6 0.9 4.6 100 0.0 S 13 17 7 9 1015.7 1016.6 1.2
01/02:30am 4.7 1.8 4.7 100 0.0 S 9 13 5 7 1015.8 1016.7 1.2
01/02:00am 4.7 1.4 4.7 100 0.0 SSW 11 17 6 9 1016.3 1017.3 1.2
01/01:30am 4.8 1.5 4.8 100 0.0 SW 11 17 6 9 1016.6 1017.6 1.2
01/01:00am 4.9 2.0 4.9 100 0.0 S 9 13 5 7 1016.8 1017.8 1.2
01/12:30am 4.8 1.2 4.8 100 0.0 SSW 13 20 7 11 1017.0 1017.9 1.2
01/12:00am 4.7 1.8 4.7 100 0.0 S 9 11 5 6 1017.0 1017.9 1.2
 
Date/Time
EST
Temp
°C
App
Temp
°C
Dew
Point
Rel
Hum
%
Delta-T
°C
Wind Press
QNH
hPa
Press
MSL
hPa
Rain
since 9 am
mm
Dir
 
Spd
km/h
Gust
km/h
Spd
kts
Gust
kts
31/11:30pm 4.9 1.7 4.9 100 0.0 S 11 17 6 9 1017.1 1018.0 1.2
31/11:00pm 5.2 2.4 5.2 100 0.0 S 9 13 5 7 1017.3 1018.2 1.0
31/10:30pm 5.2 2.8 5.2 100 0.0 SSE 7 11 4 6 1017.5 1018.4 1.0
31/10:00pm 5.2 2.8 5.2 100 0.0 SSE 7 11 4 6 1017.7 1018.6 0.8
31/09:30pm 5.4 2.7 5.4 100 0.0 SE 9 15 5 8 1017.9 1018.8 0.8
31/09:00pm 5.8 3.7 5.8 100 0.0 S 6 9 3 5 1018.0 1018.9 0.4
31/08:30pm 5.7 3.4 5.7 100 0.0 SSW 7 11 4 6 1017.9 1018.8 0.2
31/08:00pm 5.7 3.4 5.7 100 0.0 SSW 7 9 4 5 1017.9 1018.8 0.2
31/07:30pm 5.6 2.9 5.6 100 0.0 SSW 9 11 5 6 1017.9 1018.8 0.2
31/07:00pm 5.6 2.9 5.6 100 0.0 SSW 9 17 5 9 1017.8 1018.7 0.2
31/06:30pm 5.7 3.0 5.7 100 0.0 SSW 9 11 5 6 1017.8 1018.7 0.2
31/06:00pm 5.8 2.8 5.8 100 0.0 SSW 11 15 6 8 1017.9 1018.8 0.2
31/05:30pm 6.0 3.0 6.0 100 0.0 SSW 11 19 6 10 1018.0 1018.9 0.2
31/05:00pm 6.4 3.1 6.4 100 0.0 SSW 13 17 7 9 1018.0 1018.9 0.2
31/04:30pm 6.5 3.2 6.5 100 0.0 S 13 19 7 10 1018.1 1019.1 0.2
31/04:00pm 6.5 3.2 6.5 100 0.0 S 13 20 7 11 1018.1 1019.1 0.2
31/03:30pm 6.5 2.8 6.5 100 0.0 S 15 22 8 12 1018.2 1019.2 0.2
31/03:00pm 6.8 2.8 6.8 100 0.0 SSW 17 24 9 13 1018.3 1019.3 0.2
31/02:30pm 7.4 3.6 7.4 100 0.0 SSW 17 24 9 13 1018.4 1019.4 0.2
31/02:00pm 7.1 4.0 7.1 100 0.0 SSW 13 20 7 11 1018.4 1019.4 0.2
31/01:30pm 7.4 3.9 7.4 100 0.0 SW 15 20 8 11 1018.6 1019.6 0.2
31/01:00pm 7.0 3.5 7.0 100 0.0 S 15 20 8 11 1019.1 1020.1 0.2
31/12:30pm 6.6 2.6 6.6 100 0.0 SSW 17 22 9 12 1019.4 1020.3 0.2
31/12:00pm 6.6 3.0 6.6 100 0.0 SSW 15 20 8 11 1019.6 1020.5 0.2
31/11:30am 6.5 3.2 6.5 100 0.0 SSW 13 20 7 11 1019.9 1020.9 0.2
31/11:00am 5.7 2.3 5.7 100 0.0 S 13 17 7 9 1020.0 1021.0 0.2
31/10:30am 5.7 2.3 5.7 100 0.0 SSW 13 20 7 11 1020.3 1021.3 0.2
31/10:00am 5.2 1.6 5.2 100 0.0 S 13 19 7 10 1020.5 1021.5 0.2

Other Formats:

Comma delimited format used in spreadsheet applications
http://www.bom.gov.au/fwo/IDT60801/IDT60801.94960.axf

JavaScript Object Notation format (JSON) in row-major order
http://www.bom.gov.au/fwo/IDT60801/IDT60801.94960.json